sensor_id;sensor_type;location;lat;lon;timestamp;temperature;humidity
11304;DHT22;5707;49.588;12.148;2022-11-25T00:01:15;1.00;99.90
11304;DHT22;5707;49.588;12.148;2022-11-25T00:03:42;1.10;99.90
11304;DHT22;5707;49.588;12.148;2022-11-25T00:08:37;1.20;99.90
11304;DHT22;5707;49.588;12.148;2022-11-25T00:11:03;1.30;99.90
11304;DHT22;5707;49.588;12.148;2022-11-25T00:13:29;1.20;99.90
11304;DHT22;5707;49.588;12.148;2022-11-25T00:15:55;1.20;99.90
11304;DHT22;5707;49.588;12.148;2022-11-25T00:18:24;1.00;99.90
11304;DHT22;5707;49.588;12.148;2022-11-25T00:20:50;0.90;99.90
11304;DHT22;5707;49.588;12.148;2022-11-25T00:23:16;0.90;99.90
11304;DHT22;5707;49.588;12.148;2022-11-25T00:25:41;1.00;99.90
11304;DHT22;5707;49.588;12.148;2022-11-25T00:28:07;1.00;99.90
11304;DHT22;5707;49.588;12.148;2022-11-25T00:30:32;0.80;99.90
11304;DHT22;5707;49.588;12.148;2022-11-25T00:32:58;0.70;99.90
11304;DHT22;5707;49.588;12.148;2022-11-25T00:35:23;0.70;99.90
11304;DHT22;5707;49.588;12.148;2022-11-25T00:37:49;0.70;99.90
11304;DHT22;5707;49.588;12.148;2022-11-25T00:40:15;0.90;99.90
11304;DHT22;5707;49.588;12.148;2022-11-25T00:42:40;0.70;99.90
11304;DHT22;5707;49.588;12.148;2022-11-25T00:45:24;0.70;99.90
11304;DHT22;5707;49.588;12.148;2022-11-25T00:47:52;0.70;99.90
11304;DHT22;5707;49.588;12.148;2022-11-25T00:50:17;0.70;99.90
11304;DHT22;5707;49.588;12.148;2022-11-25T00:52:43;0.70;99.90
11304;DHT22;5707;49.588;12.148;2022-11-25T00:55:09;0.80;99.90
11304;DHT22;5707;49.588;12.148;2022-11-25T00:57:34;0.90;99.90
11304;DHT22;5707;49.588;12.148;2022-11-25T01:00:00;0.90;99.90
11304;DHT22;5707;49.588;12.148;2022-11-25T01:02:26;1.00;99.90
11304;DHT22;5707;49.588;12.148;2022-11-25T01:04:52;1.10;99.90
11304;DHT22;5707;49.588;12.148;2022-11-25T01:07:18;1.20;99.90
11304;DHT22;5707;49.588;12.148;2022-11-25T01:09:44;1.40;99.90
11304;DHT22;5707;49.588;12.148;2022-11-25T01:12:10;1.50;99.90
11304;DHT22;5707;49.588;12.148;2022-11-25T01:14:35;1.60;99.90
11304;DHT22;5707;49.588;12.148;2022-11-25T01:17:01;1.70;99.90
11304;DHT22;5707;49.588;12.148;2022-11-25T01:19:27;1.80;99.90
11304;DHT22;5707;49.588;12.148;2022-11-25T01:21:53;1.70;99.90
11304;DHT22;5707;49.588;12.148;2022-11-25T01:24:18;1.60;99.90
11304;DHT22;5707;49.588;12.148;2022-11-25T01:26:44;1.60;99.90
11304;DHT22;5707;49.588;12.148;2022-11-25T01:29:16;1.60;99.90
11304;DHT22;5707;49.588;12.148;2022-11-25T01:31:43;1.60;99.90
11304;DHT22;5707;49.588;12.148;2022-11-25T01:34:20;1.70;99.90
11304;DHT22;5707;49.588;12.148;2022-11-25T01:36:46;1.80;99.90
11304;DHT22;5707;49.588;12.148;2022-11-25T01:39:17;1.70;99.90
11304;DHT22;5707;49.588;12.148;2022-11-25T01:41:44;1.70;99.90
11304;DHT22;5707;49.588;12.148;2022-11-25T01:54:30;1.60;99.90
11304;DHT22;5707;49.588;12.148;2022-11-25T01:57:04;1.60;99.90
11304;DHT22;5707;49.588;12.148;2022-11-25T01:59:33;1.70;99.90
11304;DHT22;5707;49.588;12.148;2022-11-25T02:02:04;1.70;99.90
11304;DHT22;5707;49.588;12.148;2022-11-25T02:04:33;1.70;99.90
11304;DHT22;5707;49.588;12.148;2022-11-25T02:07:04;1.80;99.90
11304;DHT22;5707;49.588;12.148;2022-11-25T02:09:33;1.80;99.90
11304;DHT22;5707;49.588;12.148;2022-11-25T02:12:00;1.80;99.90
11304;DHT22;5707;49.588;12.148;2022-11-25T02:14:26;1.70;99.90
11304;DHT22;5707;49.588;12.148;2022-11-25T02:16:52;1.60;99.90
11304;DHT22;5707;49.588;12.148;2022-11-25T02:19:42;1.60;99.90
11304;DHT22;5707;49.588;12.148;2022-11-25T02:22:21;1.60;99.90
11304;DHT22;5707;49.588;12.148;2022-11-25T02:24:54;1.70;99.90
11304;DHT22;5707;49.588;12.148;2022-11-25T02:27:21;1.60;99.90
11304;DHT22;5707;49.588;12.148;2022-11-25T02:29:47;1.50;99.90
11304;DHT22;5707;49.588;12.148;2022-11-25T02:32:14;1.50;99.90
11304;DHT22;5707;49.588;12.148;2022-11-25T02:34:46;1.60;99.90
11304;DHT22;5707;49.588;12.148;2022-11-25T02:37:13;1.80;99.90
11304;DHT22;5707;49.588;12.148;2022-11-25T02:39:40;1.90;99.90
11304;DHT22;5707;49.588;12.148;2022-11-25T02:42:06;1.90;99.90
11304;DHT22;5707;49.588;12.148;2022-11-25T02:44:32;2.00;99.90
11304;DHT22;5707;49.588;12.148;2022-11-25T02:46:58;2.00;99.90
11304;DHT22;5707;49.588;12.148;2022-11-25T02:49:23;2.20;99.90
11304;DHT22;5707;49.588;12.148;2022-11-25T02:51:49;2.30;99.90
11304;DHT22;5707;49.588;12.148;2022-11-25T02:54:15;2.40;99.90
11304;DHT22;5707;49.588;12.148;2022-11-25T02:56:40;2.50;99.90
11304;DHT22;5707;49.588;12.148;2022-11-25T02:59:07;2.50;99.90
11304;DHT22;5707;49.588;12.148;2022-11-25T03:01:33;2.60;99.90
11304;DHT22;5707;49.588;12.148;2022-11-25T03:04:00;2.60;99.90
11304;DHT22;5707;49.588;12.148;2022-11-25T03:06:26;2.60;99.90
11304;DHT22;5707;49.588;12.148;2022-11-25T03:08:52;2.50;99.90
11304;DHT22;5707;49.588;12.148;2022-11-25T03:11:18;2.50;99.90
11304;DHT22;5707;49.588;12.148;2022-11-25T03:13:43;2.60;99.90
11304;DHT22;5707;49.588;12.148;2022-11-25T03:16:09;2.60;99.90
11304;DHT22;5707;49.588;12.148;2022-11-25T03:18:35;2.70;99.90
11304;DHT22;5707;49.588;12.148;2022-11-25T03:21:00;2.70;99.90
11304;DHT22;5707;49.588;12.148;2022-11-25T03:23:26;2.60;99.90
11304;DHT22;5707;49.588;12.148;2022-11-25T03:25:52;2.60;99.90
11304;DHT22;5707;49.588;12.148;2022-11-25T03:28:18;2.60;99.90
11304;DHT22;5707;49.588;12.148;2022-11-25T03:30:44;2.50;99.90
11304;DHT22;5707;49.588;12.148;2022-11-25T03:33:09;2.60;99.90
11304;DHT22;5707;49.588;12.148;2022-11-25T03:35:35;2.60;99.90
11304;DHT22;5707;49.588;12.148;2022-11-25T03:38:00;2.60;99.90
11304;DHT22;5707;49.588;12.148;2022-11-25T03:40:26;2.70;99.90
11304;DHT22;5707;49.588;12.148;2022-11-25T03:42:52;2.90;99.90
11304;DHT22;5707;49.588;12.148;2022-11-25T03:45:17;3.10;99.90
11304;DHT22;5707;49.588;12.148;2022-11-25T03:47:43;3.20;99.90
11304;DHT22;5707;49.588;12.148;2022-11-25T03:50:12;3.30;99.90
11304;DHT22;5707;49.588;12.148;2022-11-25T03:52:38;3.40;99.90
11304;DHT22;5707;49.588;12.148;2022-11-25T03:55:04;3.50;99.90
11304;DHT22;5707;49.588;12.148;2022-11-25T03:57:31;3.50;99.90
11304;DHT22;5707;49.588;12.148;2022-11-25T03:59:57;3.50;99.90
11304;DHT22;5707;49.588;12.148;2022-11-25T04:02:22;3.60;99.90
11304;DHT22;5707;49.588;12.148;2022-11-25T04:04:48;3.50;99.90
11304;DHT22;5707;49.588;12.148;2022-11-25T04:07:14;3.50;99.90
11304;DHT22;5707;49.588;12.148;2022-11-25T04:09:40;3.50;99.90
11304;DHT22;5707;49.588;12.148;2022-11-25T04:12:05;3.50;99.90
11304;DHT22;5707;49.588;12.148;2022-11-25T04:14:50;3.50;99.90
11304;DHT22;5707;49.588;12.148;2022-11-25T04:17:16;3.50;99.90
11304;DHT22;5707;49.588;12.148;2022-11-25T04:19:41;3.40;99.90
11304;DHT22;5707;49.588;12.148;2022-11-25T04:22:07;3.40;99.90
11304;DHT22;5707;49.588;12.148;2022-11-25T04:24:33;3.50;99.90
11304;DHT22;5707;49.588;12.148;2022-11-25T04:26:58;3.50;99.90
11304;DHT22;5707;49.588;12.148;2022-11-25T04:29:24;3.40;99.90
11304;DHT22;5707;49.588;12.148;2022-11-25T04:31:49;3.50;99.90
11304;DHT22;5707;49.588;12.148;2022-11-25T04:34:15;3.40;99.90
11304;DHT22;5707;49.588;12.148;2022-11-25T04:36:41;3.40;99.90
11304;DHT22;5707;49.588;12.148;2022-11-25T04:39:06;3.50;99.90
11304;DHT22;5707;49.588;12.148;2022-11-25T04:41:32;3.50;99.90
11304;DHT22;5707;49.588;12.148;2022-11-25T04:44:00;3.50;99.90
11304;DHT22;5707;49.588;12.148;2022-11-25T04:46:35;3.40;99.90
11304;DHT22;5707;49.588;12.148;2022-11-25T04:49:02;3.40;99.90
11304;DHT22;5707;49.588;12.148;2022-11-25T04:51:28;3.40;99.90
11304;DHT22;5707;49.588;12.148;2022-11-25T04:53:53;3.50;99.90
11304;DHT22;5707;49.588;12.148;2022-11-25T04:56:19;3.50;99.90
11304;DHT22;5707;49.588;12.148;2022-11-25T04:58:45;3.50;99.90
11304;DHT22;5707;49.588;12.148;2022-11-25T05:01:29;3.50;99.90
11304;DHT22;5707;49.588;12.148;2022-11-25T05:03:55;3.50;99.90
11304;DHT22;5707;49.588;12.148;2022-11-25T05:06:21;3.50;99.90
11304;DHT22;5707;49.588;12.148;2022-11-25T05:08:50;3.50;99.90
11304;DHT22;5707;49.588;12.148;2022-11-25T05:11:16;3.50;99.90
11304;DHT22;5707;49.588;12.148;2022-11-25T05:13:42;3.40;99.90
11304;DHT22;5707;49.588;12.148;2022-11-25T05:16:07;3.40;99.90
11304;DHT22;5707;49.588;12.148;2022-11-25T05:18:33;3.40;99.90
11304;DHT22;5707;49.588;12.148;2022-11-25T05:21:03;3.50;99.90
11304;DHT22;5707;49.588;12.148;2022-11-25T05:23:29;3.50;99.90
11304;DHT22;5707;49.588;12.148;2022-11-25T05:26:02;3.50;99.90
11304;DHT22;5707;49.588;12.148;2022-11-25T05:28:28;3.40;99.90
11304;DHT22;5707;49.588;12.148;2022-11-25T05:30:54;3.40;99.90
11304;DHT22;5707;49.588;12.148;2022-11-25T05:33:20;3.40;99.90
11304;DHT22;5707;49.588;12.148;2022-11-25T05:35:57;3.40;99.90
11304;DHT22;5707;49.588;12.148;2022-11-25T05:38:23;3.40;99.90
11304;DHT22;5707;49.588;12.148;2022-11-25T05:40:49;3.40;99.90
11304;DHT22;5707;49.588;12.148;2022-11-25T05:43:15;3.40;99.90
11304;DHT22;5707;49.588;12.148;2022-11-25T05:45:41;3.40;99.90
11304;DHT22;5707;49.588;12.148;2022-11-25T05:48:06;3.40;99.90
11304;DHT22;5707;49.588;12.148;2022-11-25T05:50:32;3.40;99.90
11304;DHT22;5707;49.588;12.148;2022-11-25T05:52:58;3.40;99.90
11304;DHT22;5707;49.588;12.148;2022-11-25T05:55:23;3.50;99.90
11304;DHT22;5707;49.588;12.148;2022-11-25T05:57:49;3.50;99.90
11304;DHT22;5707;49.588;12.148;2022-11-25T06:00:15;3.50;99.90
11304;DHT22;5707;49.588;12.148;2022-11-25T06:02:40;3.50;99.90
11304;DHT22;5707;49.588;12.148;2022-11-25T06:05:06;3.50;99.90
11304;DHT22;5707;49.588;12.148;2022-11-25T06:07:32;3.50;99.90
11304;DHT22;5707;49.588;12.148;2022-11-25T06:09:58;3.50;99.90
11304;DHT22;5707;49.588;12.148;2022-11-25T06:12:23;3.50;99.90
11304;DHT22;5707;49.588;12.148;2022-11-25T06:14:49;3.50;99.90
11304;DHT22;5707;49.588;12.148;2022-11-25T06:17:15;3.50;99.90
11304;DHT22;5707;49.588;12.148;2022-11-25T06:19:41;3.50;99.90
11304;DHT22;5707;49.588;12.148;2022-11-25T06:22:06;3.50;99.90
11304;DHT22;5707;49.588;12.148;2022-11-25T06:24:32;3.50;99.90
11304;DHT22;5707;49.588;12.148;2022-11-25T06:26:57;3.60;99.90
11304;DHT22;5707;49.588;12.148;2022-11-25T06:29:25;3.60;99.90
11304;DHT22;5707;49.588;12.148;2022-11-25T06:31:50;3.60;99.90
11304;DHT22;5707;49.588;12.148;2022-11-25T06:34:16;3.60;99.90
11304;DHT22;5707;49.588;12.148;2022-11-25T06:36:41;3.60;99.90
11304;DHT22;5707;49.588;12.148;2022-11-25T06:39:07;3.60;99.90
11304;DHT22;5707;49.588;12.148;2022-11-25T06:41:33;3.60;99.90
11304;DHT22;5707;49.588;12.148;2022-11-25T06:43:59;3.60;99.90
11304;DHT22;5707;49.588;12.148;2022-11-25T06:46:25;3.70;99.90
11304;DHT22;5707;49.588;12.148;2022-11-25T06:48:51;3.70;99.90
11304;DHT22;5707;49.588;12.148;2022-11-25T06:51:17;3.70;99.90
11304;DHT22;5707;49.588;12.148;2022-11-25T06:53:43;3.60;99.90
11304;DHT22;5707;49.588;12.148;2022-11-25T06:58:38;3.70;99.90
11304;DHT22;5707;49.588;12.148;2022-11-25T07:01:14;3.70;99.90
11304;DHT22;5707;49.588;12.148;2022-11-25T07:03:44;3.80;99.90
11304;DHT22;5707;49.588;12.148;2022-11-25T07:06:14;3.80;99.90
11304;DHT22;5707;49.588;12.148;2022-11-25T07:08:41;3.80;99.90
11304;DHT22;5707;49.588;12.148;2022-11-25T07:11:14;3.80;99.90
11304;DHT22;5707;49.588;12.148;2022-11-25T07:13:40;3.80;99.90
11304;DHT22;5707;49.588;12.148;2022-11-25T07:16:06;3.80;99.90
11304;DHT22;5707;49.588;12.148;2022-11-25T07:18:34;3.80;99.90
11304;DHT22;5707;49.588;12.148;2022-11-25T07:21:12;3.80;99.90
11304;DHT22;5707;49.588;12.148;2022-11-25T07:23:38;3.80;99.90
11304;DHT22;5707;49.588;12.148;2022-11-25T07:26:07;3.90;99.90
11304;DHT22;5707;49.588;12.148;2022-11-25T07:28:34;3.90;99.90
11304;DHT22;5707;49.588;12.148;2022-11-25T07:31:08;3.90;99.90
11304;DHT22;5707;49.588;12.148;2022-11-25T07:33:35;3.90;99.90
11304;DHT22;5707;49.588;12.148;2022-11-25T07:36:05;3.90;99.90
11304;DHT22;5707;49.588;12.148;2022-11-25T07:38:32;3.90;99.90
11304;DHT22;5707;49.588;12.148;2022-11-25T07:41:05;3.90;99.90
11304;DHT22;5707;49.588;12.148;2022-11-25T07:43:32;4.00;99.90
11304;DHT22;5707;49.588;12.148;2022-11-25T07:46:14;4.00;99.90
11304;DHT22;5707;49.588;12.148;2022-11-25T07:48:41;4.00;99.90
11304;DHT22;5707;49.588;12.148;2022-11-25T07:53:46;4.10;99.90
11304;DHT22;5707;49.588;12.148;2022-11-25T07:56:13;4.10;99.90
11304;DHT22;5707;49.588;12.148;2022-11-25T07:58:39;4.10;99.90
11304;DHT22;5707;49.588;12.148;2022-11-25T08:01:06;4.10;99.90
11304;DHT22;5707;49.588;12.148;2022-11-25T08:03:34;4.20;99.90
11304;DHT22;5707;49.588;12.148;2022-11-25T08:06:05;4.20;99.90
11304;DHT22;5707;49.588;12.148;2022-11-25T08:08:31;4.30;99.90
11304;DHT22;5707;49.588;12.148;2022-11-25T08:10:57;4.30;99.90
11304;DHT22;5707;49.588;12.148;2022-11-25T08:13:23;4.40;99.90
11304;DHT22;5707;49.588;12.148;2022-11-25T08:15:49;4.40;99.90
11304;DHT22;5707;49.588;12.148;2022-11-25T08:18:14;4.40;99.90
11304;DHT22;5707;49.588;12.148;2022-11-25T08:20:41;4.50;99.90
11304;DHT22;5707;49.588;12.148;2022-11-25T08:23:06;4.60;99.90
11304;DHT22;5707;49.588;12.148;2022-11-25T08:25:32;4.70;99.90
11304;DHT22;5707;49.588;12.148;2022-11-25T08:27:58;4.60;99.90
11304;DHT22;5707;49.588;12.148;2022-11-25T08:30:25;4.70;99.90
11304;DHT22;5707;49.588;12.148;2022-11-25T08:32:51;4.60;99.90
11304;DHT22;5707;49.588;12.148;2022-11-25T08:35:18;4.70;99.90
11304;DHT22;5707;49.588;12.148;2022-11-25T08:37:44;4.70;99.90
11304;DHT22;5707;49.588;12.148;2022-11-25T08:40:10;4.80;99.90
11304;DHT22;5707;49.588;12.148;2022-11-25T08:42:37;4.90;99.90
11304;DHT22;5707;49.588;12.148;2022-11-25T08:45:03;4.90;99.90
11304;DHT22;5707;49.588;12.148;2022-11-25T08:47:29;4.90;99.90
11304;DHT22;5707;49.588;12.148;2022-11-25T08:49:54;5.00;99.90
11304;DHT22;5707;49.588;12.148;2022-11-25T08:52:21;5.00;99.90
11304;DHT22;5707;49.588;12.148;2022-11-25T08:54:47;4.90;99.90
11304;DHT22;5707;49.588;12.148;2022-11-25T08:57:12;4.90;99.90
11304;DHT22;5707;49.588;12.148;2022-11-25T08:59:38;5.00;99.90
11304;DHT22;5707;49.588;12.148;2022-11-25T09:02:05;4.90;99.90
11304;DHT22;5707;49.588;12.148;2022-11-25T09:04:31;5.00;99.90
11304;DHT22;5707;49.588;12.148;2022-11-25T09:06:57;5.00;99.90
11304;DHT22;5707;49.588;12.148;2022-11-25T09:09:22;5.00;99.90
11304;DHT22;5707;49.588;12.148;2022-11-25T09:11:48;5.10;99.90
11304;DHT22;5707;49.588;12.148;2022-11-25T09:14:13;5.30;99.90
11304;DHT22;5707;49.588;12.148;2022-11-25T09:16:39;5.40;99.90
11304;DHT22;5707;49.588;12.148;2022-11-25T09:19:05;5.50;99.90
11304;DHT22;5707;49.588;12.148;2022-11-25T09:21:31;5.70;99.90
11304;DHT22;5707;49.588;12.148;2022-11-25T09:23:57;5.90;99.90
11304;DHT22;5707;49.588;12.148;2022-11-25T09:26:28;6.10;99.90
11304;DHT22;5707;49.588;12.148;2022-11-25T09:28:55;6.00;99.90
11304;DHT22;5707;49.588;12.148;2022-11-25T09:31:22;6.20;99.90
11304;DHT22;5707;49.588;12.148;2022-11-25T09:33:48;6.30;99.90
11304;DHT22;5707;49.588;12.148;2022-11-25T09:36:15;6.50;99.90
11304;DHT22;5707;49.588;12.148;2022-11-25T09:38:42;6.50;99.90
11304;DHT22;5707;49.588;12.148;2022-11-25T09:44:45;6.70;99.90
11304;DHT22;5707;49.588;12.148;2022-11-25T09:53:25;6.60;99.90
11304;DHT22;5707;49.588;12.148;2022-11-25T09:55:59;6.80;99.90
11304;DHT22;5707;49.588;12.148;2022-11-25T09:58:40;7.20;99.90
11304;DHT22;5707;49.588;12.148;2022-11-25T10:01:17;7.30;99.90
11304;DHT22;5707;49.588;12.148;2022-11-25T10:03:51;7.50;99.90
11304;DHT22;5707;49.588;12.148;2022-11-25T10:08:58;7.10;99.90
11304;DHT22;5707;49.588;12.148;2022-11-25T10:16:49;7.10;99.90
11304;DHT22;5707;49.588;12.148;2022-11-25T10:19:38;7.20;99.90
11304;DHT22;5707;49.588;12.148;2022-11-25T10:22:22;7.20;99.90
11304;DHT22;5707;49.588;12.148;2022-11-25T10:24:50;7.30;99.90
11304;DHT22;5707;49.588;12.148;2022-11-25T10:27:30;7.30;99.90
11304;DHT22;5707;49.588;12.148;2022-11-25T10:33:13;7.40;99.90
11304;DHT22;5707;49.588;12.148;2022-11-25T10:36:03;7.50;99.90
11304;DHT22;5707;49.588;12.148;2022-11-25T10:41:05;7.70;99.90
11304;DHT22;5707;49.588;12.148;2022-11-25T10:43:32;7.80;99.90
11304;DHT22;5707;49.588;12.148;2022-11-25T10:46:24;7.80;99.90
11304;DHT22;5707;49.588;12.148;2022-11-25T10:49:48;7.70;99.90
11304;DHT22;5707;49.588;12.148;2022-11-25T10:51:52;7.60;99.90
11304;DHT22;5707;49.588;12.148;2022-11-25T10:54:21;7.60;99.90
11304;DHT22;5707;49.588;12.148;2022-11-25T10:56:51;7.70;99.90
11304;DHT22;5707;49.588;12.148;2022-11-25T10:59:33;7.70;99.90
11304;DHT22;5707;49.588;12.148;2022-11-25T11:07:19;8.10;99.90
11304;DHT22;5707;49.588;12.148;2022-11-25T11:09:45;8.20;99.90
11304;DHT22;5707;49.588;12.148;2022-11-25T11:12:24;8.20;99.90
11304;DHT22;5707;49.588;12.148;2022-11-25T11:14:51;8.10;99.90
11304;DHT22;5707;49.588;12.148;2022-11-25T11:17:30;8.20;99.90
11304;DHT22;5707;49.588;12.148;2022-11-25T11:22:32;8.30;99.90
11304;DHT22;5707;49.588;12.148;2022-11-25T11:25:12;8.20;99.90
11304;DHT22;5707;49.588;12.148;2022-11-25T11:27:46;8.20;99.90
11304;DHT22;5707;49.588;12.148;2022-11-25T11:30:20;8.20;99.90
11304;DHT22;5707;49.588;12.148;2022-11-25T11:39:08;8.40;99.90
11304;DHT22;5707;49.588;12.148;2022-11-25T11:55:03;8.40;99.90
11304;DHT22;5707;49.588;12.148;2022-11-25T11:57:58;8.30;99.90
11304;DHT22;5707;49.588;12.148;2022-11-25T12:00:28;8.00;99.90
11304;DHT22;5707;49.588;12.148;2022-11-25T12:03:12;7.70;99.90
11304;DHT22;5707;49.588;12.148;2022-11-25T12:05:38;7.50;99.90
11304;DHT22;5707;49.588;12.148;2022-11-25T12:08:29;7.50;99.90
11304;DHT22;5707;49.588;12.148;2022-11-25T12:11:00;7.50;99.90
11304;DHT22;5707;49.588;12.148;2022-11-25T12:16:11;7.70;99.90
11304;DHT22;5707;49.588;12.148;2022-11-25T12:24:10;7.70;99.90
11304;DHT22;5707;49.588;12.148;2022-11-25T12:29:21;7.60;99.90
11304;DHT22;5707;49.588;12.148;2022-11-25T12:31:57;7.60;99.90
11304;DHT22;5707;49.588;12.148;2022-11-25T12:34:40;7.70;99.90
11304;DHT22;5707;49.588;12.148;2022-11-25T12:37:29;7.70;99.90
11304;DHT22;5707;49.588;12.148;2022-11-25T12:40:07;7.70;99.90
11304;DHT22;5707;49.588;12.148;2022-11-25T12:42:38;7.50;99.90
11304;DHT22;5707;49.588;12.148;2022-11-25T12:45:22;7.20;99.90
11304;DHT22;5707;49.588;12.148;2022-11-25T12:47:48;6.90;99.90
11304;DHT22;5707;49.588;12.148;2022-11-25T12:53:15;6.50;99.90
11304;DHT22;5707;49.588;12.148;2022-11-25T12:55:43;6.50;99.90
11304;DHT22;5707;49.588;12.148;2022-11-25T13:12:45;7.40;99.90
11304;DHT22;5707;49.588;12.148;2022-11-25T13:18:08;7.80;99.90
11304;DHT22;5707;49.588;12.148;2022-11-25T13:20:40;7.80;99.90
11304;DHT22;5707;49.588;12.148;2022-11-25T13:25:41;7.90;99.90
11304;DHT22;5707;49.588;12.148;2022-11-25T13:28:33;7.90;99.90
11304;DHT22;5707;49.588;12.148;2022-11-25T13:31:19;8.10;99.90
11304;DHT22;5707;49.588;12.148;2022-11-25T13:36:19;8.00;99.90
11304;DHT22;5707;49.588;12.148;2022-11-25T13:41:23;7.80;99.90
11304;DHT22;5707;49.588;12.148;2022-11-25T13:44:17;7.80;99.90
11304;DHT22;5707;49.588;12.148;2022-11-25T13:46:46;7.80;99.90
11304;DHT22;5707;49.588;12.148;2022-11-25T13:49:29;7.70;99.90
11304;DHT22;5707;49.588;12.148;2022-11-25T13:54:49;7.30;99.90
11304;DHT22;5707;49.588;12.148;2022-11-25T14:05:03;6.90;99.90
11304;DHT22;5707;49.588;12.148;2022-11-25T14:19:15;6.60;99.90
11304;DHT22;5707;49.588;12.148;2022-11-25T14:24:40;6.60;99.90
11304;DHT22;5707;49.588;12.148;2022-11-25T14:27:25;6.50;99.90
11304;DHT22;5707;49.588;12.148;2022-11-25T14:29:58;6.50;99.90
11304;DHT22;5707;49.588;12.148;2022-11-25T14:32:33;6.40;99.90
11304;DHT22;5707;49.588;12.148;2022-11-25T14:35:07;6.30;99.90
11304;DHT22;5707;49.588;12.148;2022-11-25T14:37:50;6.10;99.90
11304;DHT22;5707;49.588;12.148;2022-11-25T14:40:37;5.90;99.90
11304;DHT22;5707;49.588;12.148;2022-11-25T14:43:12;5.70;99.90
11304;DHT22;5707;49.588;12.148;2022-11-25T14:45:39;5.50;99.90
11304;DHT22;5707;49.588;12.148;2022-11-25T14:48:17;5.30;99.90
11304;DHT22;5707;49.588;12.148;2022-11-25T14:51:04;5.20;99.90
11304;DHT22;5707;49.588;12.148;2022-11-25T14:53:40;5.10;99.90
11304;DHT22;5707;49.588;12.148;2022-11-25T14:56:07;5.10;99.90
11304;DHT22;5707;49.588;12.148;2022-11-25T14:58:33;5.00;99.90
11304;DHT22;5707;49.588;12.148;2022-11-25T15:01:01;5.10;99.90
11304;DHT22;5707;49.588;12.148;2022-11-25T15:03:28;5.20;99.90
11304;DHT22;5707;49.588;12.148;2022-11-25T15:06:02;5.30;99.90
11304;DHT22;5707;49.588;12.148;2022-11-25T15:08:44;5.40;99.90
11304;DHT22;5707;49.588;12.148;2022-11-25T15:11:21;5.40;99.90
11304;DHT22;5707;49.588;12.148;2022-11-25T15:13:52;5.50;99.90
11304;DHT22;5707;49.588;12.148;2022-11-25T15:16:22;5.50;99.90
11304;DHT22;5707;49.588;12.148;2022-11-25T15:18:55;5.50;99.90
11304;DHT22;5707;49.588;12.148;2022-11-25T15:21:34;5.50;99.90
11304;DHT22;5707;49.588;12.148;2022-11-25T15:24:01;5.50;99.90
11304;DHT22;5707;49.588;12.148;2022-11-25T15:26:30;5.60;99.90
11304;DHT22;5707;49.588;12.148;2022-11-25T15:29:03;5.60;99.90
11304;DHT22;5707;49.588;12.148;2022-11-25T15:31:33;5.60;99.90
11304;DHT22;5707;49.588;12.148;2022-11-25T15:34:02;5.50;99.90
11304;DHT22;5707;49.588;12.148;2022-11-25T15:36:29;5.50;99.90
11304;DHT22;5707;49.588;12.148;2022-11-25T15:39:15;5.50;99.90
11304;DHT22;5707;49.588;12.148;2022-11-25T15:44:23;5.50;99.90
11304;DHT22;5707;49.588;12.148;2022-11-25T15:46:59;5.40;99.90
11304;DHT22;5707;49.588;12.148;2022-11-25T15:49:26;5.40;99.90
11304;DHT22;5707;49.588;12.148;2022-11-25T15:52:10;5.40;99.90
11304;DHT22;5707;49.588;12.148;2022-11-25T15:54:43;5.40;99.90
11304;DHT22;5707;49.588;12.148;2022-11-25T15:57:22;5.40;99.90
11304;DHT22;5707;49.588;12.148;2022-11-25T16:02:49;5.30;99.90
11304;DHT22;5707;49.588;12.148;2022-11-25T16:05:29;5.30;99.90
11304;DHT22;5707;49.588;12.148;2022-11-25T16:07:57;5.30;99.90
11304;DHT22;5707;49.588;12.148;2022-11-25T16:10:48;5.20;99.90
11304;DHT22;5707;49.588;12.148;2022-11-25T16:18:13;5.10;99.90
11304;DHT22;5707;49.588;12.148;2022-11-25T16:20:49;5.10;99.90
11304;DHT22;5707;49.588;12.148;2022-11-25T16:23:15;5.10;99.90
11304;DHT22;5707;49.588;12.148;2022-11-25T16:26:01;5.10;99.90
11304;DHT22;5707;49.588;12.148;2022-11-25T16:28:27;5.00;99.90
11304;DHT22;5707;49.588;12.148;2022-11-25T16:30:53;5.00;99.90
11304;DHT22;5707;49.588;12.148;2022-11-25T16:33:23;5.00;99.90
11304;DHT22;5707;49.588;12.148;2022-11-25T16:35:49;5.00;99.90
11304;DHT22;5707;49.588;12.148;2022-11-25T16:38:14;5.00;99.90
11304;DHT22;5707;49.588;12.148;2022-11-25T16:40:40;5.00;99.90
11304;DHT22;5707;49.588;12.148;2022-11-25T16:43:26;5.00;99.90
11304;DHT22;5707;49.588;12.148;2022-11-25T16:45:53;4.90;99.90
11304;DHT22;5707;49.588;12.148;2022-11-25T16:48:21;4.90;99.90
11304;DHT22;5707;49.588;12.148;2022-11-25T16:50:48;4.90;99.90
11304;DHT22;5707;49.588;12.148;2022-11-25T16:53:13;4.90;99.90
11304;DHT22;5707;49.588;12.148;2022-11-25T16:55:41;4.90;99.90
11304;DHT22;5707;49.588;12.148;2022-11-25T16:58:17;4.90;99.90
11304;DHT22;5707;49.588;12.148;2022-11-25T17:00:51;4.90;99.90
11304;DHT22;5707;49.588;12.148;2022-11-25T17:03:18;4.90;99.90
11304;DHT22;5707;49.588;12.148;2022-11-25T17:05:44;4.90;99.90
11304;DHT22;5707;49.588;12.148;2022-11-25T17:08:11;4.90;99.90
11304;DHT22;5707;49.588;12.148;2022-11-25T17:10:38;4.80;99.90
11304;DHT22;5707;49.588;12.148;2022-11-25T17:13:04;4.80;99.90
11304;DHT22;5707;49.588;12.148;2022-11-25T17:15:35;4.80;99.90
11304;DHT22;5707;49.588;12.148;2022-11-25T17:18:02;4.80;99.90
11304;DHT22;5707;49.588;12.148;2022-11-25T17:20:29;4.80;99.90
11304;DHT22;5707;49.588;12.148;2022-11-25T17:22:55;4.80;99.90
11304;DHT22;5707;49.588;12.148;2022-11-25T17:25:21;4.80;99.90
11304;DHT22;5707;49.588;12.148;2022-11-25T17:27:49;4.70;99.90
11304;DHT22;5707;49.588;12.148;2022-11-25T17:30:18;4.70;99.90
11304;DHT22;5707;49.588;12.148;2022-11-25T17:32:44;4.70;99.90
11304;DHT22;5707;49.588;12.148;2022-11-25T17:35:18;4.70;99.90
11304;DHT22;5707;49.588;12.148;2022-11-25T17:37:45;4.70;99.90
11304;DHT22;5707;49.588;12.148;2022-11-25T17:40:11;4.70;99.90
11304;DHT22;5707;49.588;12.148;2022-11-25T17:42:37;4.80;99.90
11304;DHT22;5707;49.588;12.148;2022-11-25T17:45:12;4.80;99.90
11304;DHT22;5707;49.588;12.148;2022-11-25T17:47:39;4.80;99.90
11304;DHT22;5707;49.588;12.148;2022-11-25T17:52:39;4.80;99.90
11304;DHT22;5707;49.588;12.148;2022-11-25T17:55:05;4.80;99.90
11304;DHT22;5707;49.588;12.148;2022-11-25T17:57:31;4.80;99.90
11304;DHT22;5707;49.588;12.148;2022-11-25T17:59:56;4.90;99.90
11304;DHT22;5707;49.588;12.148;2022-11-25T18:02:23;4.90;99.90
11304;DHT22;5707;49.588;12.148;2022-11-25T18:04:49;4.90;99.90
11304;DHT22;5707;49.588;12.148;2022-11-25T18:07:15;4.90;99.90
11304;DHT22;5707;49.588;12.148;2022-11-25T18:09:40;4.90;99.90
11304;DHT22;5707;49.588;12.148;2022-11-25T18:12:11;4.90;99.90
11304;DHT22;5707;49.588;12.148;2022-11-25T18:14:37;4.90;99.90
11304;DHT22;5707;49.588;12.148;2022-11-25T18:17:06;4.90;99.90
11304;DHT22;5707;49.588;12.148;2022-11-25T18:19:33;4.90;99.90
11304;DHT22;5707;49.588;12.148;2022-11-25T18:22:13;4.90;99.90
11304;DHT22;5707;49.588;12.148;2022-11-25T18:24:39;4.90;99.90